Terminal Aerodrome Forecast
Issued by NWS Tampa Bay Area, FL

Home | Current Version | Previous Version | Text Only | Print | Product List | Glossary On
Versions: 1 2 3 4 5 6 7 8 9 10 11 12 13 14
010
FTUS42 KTBW 221131
TAFSRQ
TAF
KSRQ 221131Z 2212/2312 12009KT P6SM SHRA SCT025 OVC050
     FM221300 13009KT 5SM TSRA SCT015CB BKN020 OVC050
     FM222200 24008KT 5SM SHRA VCTS FEW015CB SCT025 OVC050
     FM230000 36007KT P6SM SHRA SCT025 OVC050
     FM230300 02005KT P6SM BKN030 OVC060
     FM230600 34004KT P6SM SCT010 SCT020 BKN100=

USA.gov is the U.S. government's official web portal to all federal, state and local government web resources and services.